Time;durP1;ratioP1;P1;durP2;ratioP2;P2;SDS_P1;SDS_P2;PMS_P1;PMS_P2;Temp;Humidity;BMP_temperature;BMP_pressure;BME280_temperature;BME280_humidity;BME280_pressure;Samples;Min_cycle;Max_cycle;Signal;HPM_P1;HPM_P2
2022/03/31 00:00:49;;;;;;;0.00;0.00;;;11.80;90.10;;;;;;4179473;28;20127;-69
2022/03/31 00:03:17;;;;;;;0.00;0.00;;;11.70;90.20;;;;;;4153304;28;20523;-70
2022/03/31 00:05:44;;;;;;;0.00;0.00;;;11.70;90.20;;;;;;4166797;28;20060;-66
2022/03/31 00:08:09;;;;;;;0.00;0.00;;;11.70;90.40;;;;;;4152729;28;20476;-69
2022/03/31 00:10:48;;;;;;;0.00;0.00;;;11.50;90.50;;;;;;4166147;28;20413;-70
2022/03/31 00:13:15;;;;;;;0.00;0.00;;;11.40;90.80;;;;;;4165797;28;20514;-69
2022/03/31 00:15:38;;;;;;;0.00;0.00;;;11.20;91.00;;;;;;4166189;28;20053;-70
2022/03/31 00:18:02;;;;;;;0.00;0.00;;;11.20;91.00;;;;;;4179989;28;20048;-70
2022/03/31 00:20:27;;;;;;;0.00;0.00;;;11.40;90.90;;;;;;4152351;28;20052;-72
2022/03/31 00:22:49;;;;;;;0.00;0.00;;;11.40;90.70;;;;;;4165845;28;20056;-68
2022/03/31 00:25:12;;;;;;;0.00;0.00;;;11.50;90.60;;;;;;4180058;28;20041;-70
2022/03/31 00:27:38;;;;;;;0.00;0.00;;;11.40;90.70;;;;;;4152626;28;20046;-68
2022/03/31 00:30:02;;;;;;;0.00;0.00;;;11.50;90.70;;;;;;4180041;28;20055;-68
2022/03/31 00:32:29;;;;;;;0.00;0.00;;;11.40;90.80;;;;;;4166119;28;20042;-68
2022/03/31 00:34:51;;;;;;;0.00;0.00;;;11.40;90.70;;;;;;4152190;28;20060;-67
2022/03/31 00:37:13;;;;;;;0.00;0.00;;;11.40;90.70;;;;;;4179898;28;20049;-69
2022/03/31 00:39:35;;;;;;;0.00;0.00;;;11.40;90.60;;;;;;4179837;28;20051;-67
2022/03/31 00:42:06;;;;;;;0.00;0.00;;;11.50;90.60;;;;;;4179679;28;20060;-68
2022/03/31 00:44:28;;;;;;;0.00;0.00;;;11.60;90.80;;;;;;4166172;28;20051;-68
2022/03/31 00:46:55;;;;;;;0.00;0.00;;;11.70;90.50;;;;;;4182416;28;20049;-66
2022/03/31 00:49:22;;;;;;;0.00;0.00;;;11.70;90.40;;;;;;4182881;28;20045;-69
2022/03/31 00:51:50;;;;;;;0.00;0.00;;;11.70;90.40;;;;;;4182597;28;20049;-68
2022/03/31 00:54:14;;;;;;;0.00;0.00;;;11.60;90.50;;;;;;4182690;28;20041;-67
2022/03/31 00:56:41;;;;;;;0.00;0.00;;;11.30;90.80;;;;;;4154867;28;20617;-69
2022/03/31 00:59:05;;;;;;;0.00;0.00;;;11.20;91.00;;;;;;4168365;28;20055;-70
2022/03/31 01:01:28;;;;;;;0.00;0.00;;;11.10;91.10;;;;;;4168749;28;20059;-67
2022/03/31 01:03:52;;;;;;;0.00;0.00;;;11.10;91.20;;;;;;4168722;28;20109;-73
2022/03/31 01:06:14;;;;;;;0.00;0.00;;;11.20;91.20;;;;;;4154968;28;20042;-70
2022/03/31 01:08:39;;;;;;;0.00;0.00;;;11.10;91.20;;;;;;4182500;28;20045;-70
2022/03/31 01:11:01;;;;;;;0.00;0.00;;;11.00;91.40;;;;;;4168241;28;20041;-70
2022/03/31 01:13:25;;;;;;;0.00;0.00;;;11.00;91.50;;;;;;4182447;28;20041;-68
2022/03/31 01:15:52;;;;;;;0.00;0.00;;;11.10;91.50;;;;;;4168586;28;20041;-68
2022/03/31 01:18:14;;;;;;;0.00;0.00;;;11.20;91.30;;;;;;4154816;28;20041;-69
2022/03/31 01:20:39;;;;;;;0.00;0.00;;;11.40;91.10;;;;;;4182259;28;20041;-68
2022/03/31 01:23:04;;;;;;;0.00;0.00;;;11.40;91.20;;;;;;4167760;28;20046;-71
2022/03/31 01:25:26;;;;;;;0.00;0.00;;;11.40;91.10;;;;;;4182252;28;20426;-69
2022/03/31 01:27:51;;;;;;;0.00;0.00;;;11.50;91.10;;;;;;4182346;28;20060;-69
2022/03/31 01:30:20;;;;;;;0.00;0.00;;;11.50;91.10;;;;;;4154465;28;20046;-68
2022/03/31 01:32:46;;;;;;;0.00;0.00;;;11.50;91.10;;;;;;4154353;28;20045;-67
2022/03/31 01:35:13;;;;;;;0.00;0.00;;;11.40;91.20;;;;;;4168287;28;20048;-68
2022/03/31 01:37:36;;;;;;;0.00;0.00;;;11.40;91.20;;;;;;4154568;28;20046;-71
2022/03/31 01:40:01;;;;;;;0.00;0.00;;;11.50;91.30;;;;;;4182129;28;20049;-69
2022/03/31 01:42:28;;;;;;;0.00;0.00;;;11.60;91.20;;;;;;4181985;28;20067;-70
2022/03/31 01:44:55;;;;;;;0.00;0.00;;;11.70;91.00;;;;;;4181343;28;20045;-68
2022/03/31 01:47:17;;;;;;;0.00;0.00;;;11.70;90.90;;;;;;4168137;28;20107;-70
2022/03/31 01:49:39;;;;;;;0.00;0.00;;;11.70;90.90;;;;;;4154520;28;20464;-69
2022/03/31 01:52:07;;;;;;;0.00;0.00;;;11.70;90.80;;;;;;4154255;28;20050;-66
2022/03/31 01:54:30;;;;;;;0.00;0.00;;;11.70;90.80;;;;;;4154030;28;20076;-68
2022/03/31 01:56:52;;;;;;;0.00;0.00;;;11.60;90.80;;;;;;4152696;28;20434;-69
2022/03/31 01:59:16;;;;;;;0.00;0.00;;;11.50;90.90;;;;;;4167713;28;20167;-67
2022/03/31 02:01:41;;;;;;;0.00;0.00;;;11.50;91.00;;;;;;4181624;28;20094;-72
2022/03/31 02:04:03;;;;;;;0.00;0.00;;;11.60;91.10;;;;;;4154318;28;20506;-69
2022/03/31 02:06:25;;;;;;;0.00;0.00;;;11.70;91.20;;;;;;4181700;28;20410;-71
2022/03/31 02:08:50;;;;;;;0.00;0.00;;;11.80;91.10;;;;;;4167383;28;20379;-70
2022/03/31 02:11:14;;;;;;;0.00;0.00;;;11.70;91.20;;;;;;4167912;28;20037;-69
2022/03/31 02:13:37;;;;;;;0.00;0.00;;;11.70;91.20;;;;;;4140325;28;20376;-67
2022/03/31 02:16:01;;;;;;;0.00;0.00;;;11.80;91.10;;;;;;4181486;28;20041;-72
2022/03/31 02:18:23;;;;;;;0.00;0.00;;;11.80;91.00;;;;;;4181351;28;20041;-69
2022/03/31 02:20:45;;;;;;;0.00;0.00;;;11.80;91.00;;;;;;4181084;28;20056;-68
2022/03/31 02:23:08;;;;;;;0.00;0.00;;;11.80;91.00;;;;;;4167225;28;20041;-66
2022/03/31 02:25:30;;;;;;;0.00;0.00;;;11.80;90.90;;;;;;4181279;28;20503;-70
2022/03/31 02:27:54;;;;;;;0.00;0.00;;;11.80;90.90;;;;;;4167405;28;20606;-71
2022/03/31 02:30:16;;;;;;;0.00;0.00;;;11.70;90.90;;;;;;4167299;28;20049;-71
2022/03/31 02:32:38;;;;;;;0.00;0.00;;;11.70;90.90;;;;;;4167392;28;20098;-69
2022/03/31 02:35:04;;;;;;;0.00;0.00;;;11.70;91.00;;;;;;4180499;28;20051;-67
2022/03/31 02:37:28;;;;;;;0.00;0.00;;;11.70;90.90;;;;;;4181228;28;20079;-69
2022/03/31 02:39:55;;;;;;;0.00;0.00;;;11.60;90.90;;;;;;4180910;28;20052;-67
2022/03/31 02:42:19;;;;;;;0.00;0.00;;;11.70;91.00;;;;;;4180888;28;20383;-68
2022/03/31 02:44:41;;;;;;;0.00;0.00;;;11.70;90.90;;;;;;4152968;28;20038;-68
2022/03/31 02:47:04;;;;;;;0.00;0.00;;;11.70;90.90;;;;;;4181023;28;20051;-69
2022/03/31 02:49:26;;;;;;;0.00;0.00;;;11.70;90.90;;;;;;4181078;28;20078;-69
2022/03/31 02:51:51;;;;;;;0.00;0.00;;;11.80;90.80;;;;;;4180897;28;20052;-66
2022/03/31 02:56:58;;;;;;;0.00;0.00;;;11.80;90.90;;;;;;4166231;28;20514;-67
2022/03/31 02:59:20;;;;;;;0.00;0.00;;;11.80;91.00;;;;;;4153430;28;20475;-70
2022/03/31 03:01:43;;;;;;;0.00;0.00;;;11.80;90.90;;;;;;4166789;28;20038;-70
2022/03/31 03:04:08;;;;;;;0.00;0.00;;;11.80;90.90;;;;;;4166948;28;20049;-68
2022/03/31 03:06:32;;;;;;;0.00;0.00;;;11.80;91.00;;;;;;4180634;28;20459;-67
2022/03/31 03:08:55;;;;;;;0.00;0.00;;;11.80;91.00;;;;;;4180238;28;20044;-68
2022/03/31 03:11:17;;;;;;;0.00;0.00;;;11.80;90.90;;;;;;4166903;28;20089;-69
2022/03/31 03:13:42;;;;;;;0.00;0.00;;;11.90;90.90;;;;;;4166839;28;20049;-68
2022/03/31 03:16:08;;;;;;;0.00;0.00;;;11.90;90.90;;;;;;4166578;28;20056;-68
2022/03/31 03:18:35;;;;;;;0.00;0.00;;;11.80;90.80;;;;;;4180559;28;20055;-71
2022/03/31 03:20:57;;;;;;;0.00;0.00;;;11.80;90.80;;;;;;4179886;28;20053;-70
2022/03/31 03:23:19;;;;;;;0.00;0.00;;;11.80;90.80;;;;;;4180589;28;20464;-70
2022/03/31 03:25:45;;;;;;;0.00;0.00;;;11.80;90.90;;;;;;4153489;28;20098;-69
2022/03/31 03:28:12;;;;;;;0.00;0.00;;;11.80;90.80;;;;;;4180558;28;20052;-65
2022/03/31 03:30:40;;;;;;;0.00;0.00;;;11.80;90.70;;;;;;4152605;28;20053;-71
2022/03/31 03:33:05;;;;;;;0.00;0.00;;;11.70;90.80;;;;;;4152299;28;20037;-70
2022/03/31 03:35:29;;;;;;;0.00;0.00;;;11.70;90.80;;;;;;4166397;28;20042;-71
2022/03/31 03:37:55;;;;;;;0.00;0.00;;;11.70;90.90;;;;;;4180473;28;20075;-68
2022/03/31 03:40:20;;;;;;;0.00;0.00;;;11.70;90.90;;;;;;4153347;28;20060;-69
2022/03/31 03:42:44;;;;;;;0.00;0.00;;;11.70;91.00;;;;;;4180103;28;20098;-71
2022/03/31 03:45:11;;;;;;;0.00;0.00;;;11.70;91.00;;;;;;4180226;28;20033;-70
2022/03/31 03:47:35;;;;;;;0.00;0.00;;;11.70;91.10;;;;;;4180321;28;20055;-69
2022/03/31 03:50:02;;;;;;;0.00;0.00;;;11.70;90.80;;;;;;4166512;28;20037;-71
2022/03/31 03:52:27;;;;;;;0.00;0.00;;;11.70;90.80;;;;;;4152777;28;20480;-70
2022/03/31 03:54:50;;;;;;;0.00;0.00;;;11.70;90.80;;;;;;4152290;28;20053;-69
2022/03/31 03:57:12;;;;;;;0.00;0.00;;;11.70;90.80;;;;;;4152405;28;20045;-69
2022/03/31 03:59:37;;;;;;;0.00;0.00;;;11.70;90.80;;;;;;4166324;28;20143;-70
2022/03/31 04:02:00;;;;;;;0.00;0.00;;;11.70;90.90;;;;;;4180072;28;20344;-71
2022/03/31 04:04:22;;;;;;;0.00;0.00;;;11.80;90.80;;;;;;4180279;28;20060;-67
2022/03/31 04:06:45;;;;;;;0.00;0.00;;;11.70;90.80;;;;;;4166051;28;20037;-72
2022/03/31 04:09:07;;;;;;;0.00;0.00;;;11.70;90.90;;;;;;4180094;28;20053;-69
2022/03/31 04:11:29;;;;;;;0.00;0.00;;;11.70;91.00;;;;;;4166342;28;20037;-67
2022/03/31 04:13:51;;;;;;;0.00;0.00;;;11.70;91.20;;;;;;4166338;28;20117;-70
2022/03/31 04:16:13;;;;;;;0.00;0.00;;;11.70;91.10;;;;;;4152833;28;20469;-70
2022/03/31 04:18:35;;;;;;;0.00;0.00;;;11.70;91.10;;;;;;4166394;28;20499;-69
2022/03/31 04:21:01;;;;;;;0.00;0.00;;;11.70;91.10;;;;;;4167820;28;20041;-69
2022/03/31 04:23:30;;;;;;;0.00;0.00;;;11.70;91.10;;;;;;4183294;28;20057;-68
2022/03/31 04:25:52;;;;;;;0.00;0.00;;;11.70;91.20;;;;;;4183530;28;20049;-69
2022/03/31 04:28:14;;;;;;;0.00;0.00;;;11.70;91.20;;;;;;4183362;28;20049;-69
2022/03/31 04:30:36;;;;;;;0.00;0.00;;;11.70;91.20;;;;;;4155989;28;20077;-69
2022/03/31 04:33:00;;;;;;;0.00;0.00;;;11.70;91.10;;;;;;4168880;28;20144;-66
2022/03/31 04:35:25;;;;;;;0.00;0.00;;;11.70;91.10;;;;;;4169537;28;20064;-71
2022/03/31 04:37:47;;;;;;;0.00;0.00;;;11.80;91.10;;;;;;4169135;28;20111;-68
2022/03/31 04:40:14;;;;;;;0.00;0.00;;;11.80;91.00;;;;;;4183129;28;20033;-67
2022/03/31 04:42:36;;;;;;;0.00;0.00;;;11.80;91.00;;;;;;4155279;28;20050;-68
2022/03/31 04:44:59;;;;;;;0.00;0.00;;;11.80;90.90;;;;;;4155119;28;20111;-69
2022/03/31 04:47:24;;;;;;;0.00;0.00;;;11.80;90.80;;;;;;4155715;28;20108;-69
2022/03/31 04:49:46;;;;;;;0.00;0.00;;;11.80;90.80;;;;;;4183190;28;20080;-71
2022/03/31 04:52:11;;;;;;;0.00;0.00;;;11.80;90.90;;;;;;4169501;28;20048;-65
2022/03/31 04:54:43;;;;;;;0.00;0.00;;;11.80;91.00;;;;;;4169525;28;20060;-68
2022/03/31 04:57:06;;;;;;;0.00;0.00;;;11.70;91.00;;;;;;4154730;28;20180;-68
2022/03/31 04:59:32;;;;;;;0.00;0.00;;;11.70;91.00;;;;;;4183082;28;20048;-67
2022/03/31 05:01:54;;;;;;;0.00;0.00;;;11.70;91.00;;;;;;4182784;28;20045;-70
2022/03/31 05:04:16;;;;;;;0.00;0.00;;;11.70;91.00;;;;;;4155280;28;20084;-71
2022/03/31 05:06:39;;;;;;;0.00;0.00;;;11.70;90.90;;;;;;4169055;28;20059;-68
2022/03/31 05:09:03;;;;;;;0.00;0.00;;;11.70;91.00;;;;;;4154808;28;20041;-68
2022/03/31 05:11:25;;;;;;;0.00;0.00;;;11.70;91.00;;;;;;4182617;28;20033;-71
2022/03/31 05:13:51;;;;;;;0.00;0.00;;;11.60;91.00;;;;;;4168751;28;20392;-68
2022/03/31 05:16:18;;;;;;;0.00;0.00;;;11.60;91.10;;;;;;4168768;28;20436;-68
2022/03/31 05:18:40;;;;;;;0.00;0.00;;;11.60;91.20;;;;;;4168260;28;20533;-69
2022/03/31 05:21:02;;;;;;;0.00;0.00;;;11.60;91.20;;;;;;4182752;28;20384;-69
2022/03/31 05:23:26;;;;;;;0.00;0.00;;;11.40;91.50;;;;;;4168432;28;20045;-70
2022/03/31 05:25:49;;;;;;;0.00;0.00;;;11.50;91.70;;;;;;4182393;28;20049;-67
2022/03/31 05:28:12;;;;;;;0.00;0.00;;;11.50;91.60;;;;;;4168490;28;20084;-70
2022/03/31 05:30:36;;;;;;;0.00;0.00;;;11.50;91.50;;;;;;4154703;28;20058;-70
2022/03/31 05:32:59;;;;;;;0.00;0.00;;;11.60;91.50;;;;;;4166986;28;20329;-68
2022/03/31 05:35:24;;;;;;;0.00;0.00;;;11.60;91.50;;;;;;4168416;28;20053;-69
2022/03/31 05:37:49;;;;;;;0.00;0.00;;;11.60;91.50;;;;;;4182269;28;20041;-68
2022/03/31 05:40:13;;;;;;;0.00;0.00;;;11.70;91.50;;;;;;4141224;28;20585;-69
2022/03/31 05:42:37;;;;;;;0.00;0.00;;;11.70;91.40;;;;;;4168438;28;20080;-68
2022/03/31 05:45:01;;;;;;;0.00;0.00;;;11.70;91.30;;;;;;4154573;28;20053;-71
2022/03/31 05:47:23;;;;;;;0.00;0.00;;;11.80;91.20;;;;;;4168235;28;20122;-68
2022/03/31 05:49:45;;;;;;;0.00;0.00;;;11.80;91.10;;;;;;4168378;28;20053;-69
2022/03/31 05:52:07;;;;;;;0.00;0.00;;;11.80;91.00;;;;;;4168223;28;20049;-69
2022/03/31 05:54:30;;;;;;;0.00;0.00;;;11.80;90.90;;;;;;4168091;28;20048;-69
2022/03/31 05:56:55;;;;;;;0.00;0.00;;;11.80;90.90;;;;;;4181392;28;20052;-67
2022/03/31 05:59:19;;;;;;;0.00;0.00;;;11.70;91.00;;;;;;4167908;28;20111;-67
2022/03/31 06:01:41;;;;;;;0.00;0.00;;;11.70;91.00;;;;;;4182187;28;20041;-68
2022/03/31 06:04:05;;;;;;;0.00;0.00;;;11.70;91.40;;;;;;4181939;28;20040;-70
2022/03/31 06:06:27;;;;;;;0.00;0.00;;;11.70;91.10;;;;;;4168263;28;20132;-67
2022/03/31 06:08:52;;;;;;;0.00;0.00;;;11.70;91.00;;;;;;4181667;28;20091;-68
2022/03/31 06:11:14;;;;;;;0.00;0.00;;;11.50;91.30;;;;;;4182116;28;20099;-69
2022/03/31 06:13:43;;;;;;;0.00;0.00;;;11.40;91.40;;;;;;4181944;28;20407;-66
2022/03/31 06:16:10;;;;;;;0.00;0.00;;;11.20;91.60;;;;;;4167580;28;20057;-68
2022/03/31 06:18:35;;;;;;;0.00;0.00;;;11.00;92.00;;;;;;4154039;28;20381;-66
2022/03/31 06:20:57;;;;;;;0.00;0.00;;;11.00;92.00;;;;;;4181186;28;20060;-68
2022/03/31 06:23:19;;;;;;;0.00;0.00;;;11.00;92.00;;;;;;4167849;28;20049;-67
2022/03/31 06:25:44;;;;;;;0.00;0.00;;;11.00;92.10;;;;;;4181671;28;20124;-69
2022/03/31 06:28:10;;;;;;;0.00;0.00;;;11.10;92.30;;;;;;4167862;28;20049;-70
2022/03/31 06:30:35;;;;;;;0.00;0.00;;;11.10;92.40;;;;;;4168183;28;20049;-67
2022/03/31 06:33:03;;;;;;;0.00;0.00;;;11.20;92.40;;;;;;4153516;28;20088;-68
2022/03/31 06:35:28;;;;;;;0.00;0.00;;;11.30;92.30;;;;;;4153542;28;20057;-66
2022/03/31 06:37:50;;;;;;;0.00;0.00;;;11.40;92.10;;;;;;4140070;28;20050;-67
2022/03/31 06:40:14;;;;;;;0.00;0.00;;;11.40;92.00;;;;;;4153910;28;20053;-67
2022/03/31 06:42:38;;;;;;;0.00;0.00;;;11.50;92.00;;;;;;4167310;28;20045;-67
2022/03/31 06:45:03;;;;;;;0.00;0.00;;;11.60;91.90;;;;;;4180968;28;20518;-68
2022/03/31 06:47:45;;;;;;;0.00;0.00;;;11.60;91.90;;;;;;4167511;28;20041;-67
2022/03/31 06:50:11;;;;;;;0.00;0.00;;;11.60;91.90;;;;;;4153954;28;20034;-66
2022/03/31 06:52:36;;;;;;;0.00;0.00;;;11.70;91.90;;;;;;4153925;28;20058;-66
2022/03/31 06:54:58;;;;;;;0.00;0.00;;;11.80;91.80;;;;;;4153364;28;20108;-66
2022/03/31 06:57:20;;;;;;;0.00;0.00;;;11.80;91.50;;;;;;4180998;28;20069;-68
2022/03/31 06:59:43;;;;;;;0.00;0.00;;;11.70;91.60;;;;;;4153492;28;20058;-68
2022/03/31 07:02:14;;;;;;;0.00;0.00;;;11.70;91.60;;;;;;4154182;28;20045;-66
2022/03/31 07:04:39;;;;;;;0.00;0.00;;;11.60;91.60;;;;;;4153595;28;20128;-66
2022/03/31 07:07:04;;;;;;;0.00;0.00;;;11.70;91.60;;;;;;4181089;28;20045;-67
2022/03/31 07:09:26;;;;;;;0.00;0.00;;;11.70;91.40;;;;;;4153688;28;20160;-68
2022/03/31 07:11:53;;;;;;;0.00;0.00;;;11.70;91.10;;;;;;4153869;28;20041;-68
2022/03/31 07:14:17;;;;;;;0.00;0.00;;;11.60;91.10;;;;;;4181020;28;20045;-67
2022/03/31 07:16:39;;;;;;;0.00;0.00;;;11.60;91.00;;;;;;4180532;28;20048;-66
2022/03/31 07:19:04;;;;;;;0.00;0.00;;;11.60;90.80;;;;;;4180852;28;20045;-68
2022/03/31 07:21:30;;;;;;;0.00;0.00;;;11.70;90.80;;;;;;4167299;28;20045;-67
2022/03/31 07:23:52;;;;;;;0.00;0.00;;;11.80;90.80;;;;;;4167083;28;20048;-68
2022/03/31 07:26:17;;;;;;;0.00;0.00;;;11.70;90.70;;;;;;4167217;28;20080;-67
2022/03/31 07:28:39;;;;;;;0.00;0.00;;;11.80;90.40;;;;;;4166998;28;20042;-66
2022/03/31 07:31:01;;;;;;;0.00;0.00;;;11.80;90.40;;;;;;4166643;28;20060;-68
2022/03/31 07:33:25;;;;;;;0.00;0.00;;;11.70;90.30;;;;;;4153602;28;20045;-67
2022/03/31 07:35:52;;;;;;;0.00;0.00;;;11.60;90.40;;;;;;4153488;28;20431;-68
2022/03/31 07:38:16;;;;;;;0.00;0.00;;;11.60;90.50;;;;;;4180577;28;20127;-67
2022/03/31 07:40:39;;;;;;;0.00;0.00;;;11.70;90.40;;;;;;4153529;28;20076;-67
2022/03/31 07:43:02;;;;;;;0.00;0.00;;;11.60;90.60;;;;;;4152510;28;20153;-69
2022/03/31 07:45:25;;;;;;;0.00;0.00;;;11.70;90.80;;;;;;4180740;28;20068;-67
2022/03/31 07:47:47;;;;;;;0.00;0.00;;;11.70;90.70;;;;;;4139639;28;20042;-66
2022/03/31 07:50:12;;;;;;;0.00;0.00;;;11.70;90.50;;;;;;4166929;28;20041;-68
2022/03/31 07:52:37;;;;;;;0.00;0.00;;;11.70;90.70;;;;;;4180648;28;20045;-66
2022/03/31 07:55:03;;;;;;;0.00;0.00;;;11.70;90.90;;;;;;4167012;28;20085;-71
2022/03/31 07:57:27;;;;;;;0.00;0.00;;;11.80;91.00;;;;;;4181125;28;20071;-68
2022/03/31 07:59:49;;;;;;;0.00;0.00;;;11.80;91.00;;;;;;4167435;28;20057;-68
2022/03/31 08:02:11;;;;;;;0.00;0.00;;;11.70;91.00;;;;;;4181272;28;20053;-67
2022/03/31 08:04:35;;;;;;;0.00;0.00;;;11.80;91.00;;;;;;4181300;28;20094;-66
2022/03/31 08:06:57;;;;;;;0.00;0.00;;;11.70;90.90;;;;;;4181413;28;20057;-67
2022/03/31 08:09:22;;;;;;;0.00;0.00;;;11.70;90.80;;;;;;4167453;28;20488;-70
2022/03/31 08:11:49;;;;;;;0.00;0.00;;;11.60;91.00;;;;;;4181204;28;20053;-67
2022/03/31 08:14:11;;;;;;;0.00;0.00;;;11.70;90.90;;;;;;4167354;28;20064;-68
2022/03/31 08:16:33;;;;;;;0.00;0.00;;;11.80;90.70;;;;;;4153718;28;20402;-67
2022/03/31 08:18:55;;;;;;;0.00;0.00;;;11.80;90.40;;;;;;4166592;28;20061;-68
2022/03/31 08:21:20;;;;;;;0.00;0.00;;;11.70;90.60;;;;;;4139939;28;20043;-66
2022/03/31 08:23:42;;;;;;;0.00;0.00;;;11.80;90.80;;;;;;4180770;28;20045;-67
2022/03/31 08:26:07;;;;;;;0.00;0.00;;;11.90;90.80;;;;;;4140117;28;20140;-68
2022/03/31 08:28:31;;;;;;;0.00;0.00;;;11.90;90.40;;;;;;4139992;28;20049;-68
2022/03/31 08:30:56;;;;;;;0.00;0.00;;;11.90;90.30;;;;;;4180519;28;20529;-66
2022/03/31 08:33:18;;;;;;;0.00;0.00;;;12.00;90.30;;;;;;4153461;28;20123;-67
2022/03/31 08:35:43;;;;;;;0.00;0.00;;;12.00;90.30;;;;;;4139774;28;20050;-67
2022/03/31 08:38:08;;;;;;;0.00;0.00;;;11.80;90.20;;;;;;4153675;28;20053;-67
2022/03/31 08:40:31;;;;;;;0.00;0.00;;;11.70;90.20;;;;;;4180834;28;20127;-67
2022/03/31 08:42:54;;;;;;;0.00;0.00;;;11.50;90.30;;;;;;4152787;28;20046;-68
2022/03/31 08:45:20;;;;;;;0.00;0.00;;;11.40;90.50;;;;;;4152948;28;20042;-68
2022/03/31 08:47:46;;;;;;;0.00;0.00;;;11.40;90.60;;;;;;4153036;28;20050;-69
2022/03/31 08:50:14;;;;;;;0.00;0.00;;;11.50;90.60;;;;;;4180428;28;20055;-68
2022/03/31 08:52:36;;;;;;;0.00;0.00;;;11.50;90.70;;;;;;4166528;28;20041;-68
2022/03/31 08:55:00;;;;;;;0.00;0.00;;;11.70;90.90;;;;;;4138817;28;20396;-69
2022/03/31 08:57:25;;;;;;;0.00;0.00;;;11.80;90.40;;;;;;4142037;28;20046;-69
2022/03/31 08:59:55;;;;;;;0.00;0.00;;;11.80;90.30;;;;;;4163626;28;20053;-68
2022/03/31 09:02:26;;;;;;;0.00;0.00;;;11.90;90.20;;;;;;4150067;28;20088;-67
2022/03/31 09:04:59;;;;;;;0.00;0.00;;;12.00;90.00;;;;;;4149370;28;20065;-67
2022/03/31 09:07:26;;;;;;;0.00;0.00;;;11.90;89.10;;;;;;4149746;28;20073;-67
2022/03/31 09:09:51;;;;;;;0.00;0.00;;;11.90;89.40;;;;;;4149785;28;20046;-68
2022/03/31 09:12:13;;;;;;;0.00;0.00;;;12.00;89.70;;;;;;4136238;28;20066;-66
2022/03/31 09:14:52;;;;;;;0.00;0.00;;;12.00;89.30;;;;;;4163210;28;20124;-66
2022/03/31 09:17:18;;;;;;;0.00;0.00;;;12.20;89.20;;;;;;4149955;28;20473;-68
2022/03/31 09:19:41;;;;;;;0.00;0.00;;;12.30;89.50;;;;;;4136304;28;20108;-68
2022/03/31 09:22:05;;;;;;;0.00;0.00;;;12.40;89.80;;;;;;4122517;28;20065;-67
2022/03/31 09:24:31;;;;;;;0.00;0.00;;;12.50;89.80;;;;;;4135775;28;20119;-68
2022/03/31 09:26:56;;;;;;;0.00;0.00;;;12.70;89.90;;;;;;4149183;28;20132;-69
2022/03/31 09:29:21;;;;;;;0.00;0.00;;;12.70;89.70;;;;;;4136103;28;20405;-68
2022/03/31 09:31:49;;;;;;;0.00;0.00;;;12.80;89.50;;;;;;4136091;28;20050;-68
2022/03/31 09:34:15;;;;;;;0.00;0.00;;;12.90;89.00;;;;;;4149789;28;20080;-67
2022/03/31 09:36:39;;;;;;;0.00;0.00;;;12.90;88.70;;;;;;4136116;28;20058;-66
2022/03/31 09:39:05;;;;;;;0.00;0.00;;;12.90;88.80;;;;;;4149119;28;20049;-68
2022/03/31 09:41:35;;;;;;;0.00;0.00;;;13.00;88.80;;;;;;4163388;28;20593;-68
2022/03/31 09:44:05;;;;;;;0.00;0.00;;;13.10;88.60;;;;;;4163132;28;20049;-68
2022/03/31 09:46:30;;;;;;;0.00;0.00;;;13.10;88.10;;;;;;4149308;28;20516;-69
2022/03/31 09:48:56;;;;;;;0.00;0.00;;;13.20;87.70;;;;;;4135316;28;20061;-67
2022/03/31 09:51:20;;;;;;;0.00;0.00;;;13.00;87.40;;;;;;4135297;28;20389;-68
2022/03/31 09:53:56;;;;;;;0.00;0.00;;;12.90;87.30;;;;;;4149213;28;20052;-66
2022/03/31 09:56:22;;;;;;;0.00;0.00;;;12.80;87.60;;;;;;4125663;28;20077;-68
2022/03/31 09:58:50;;;;;;;0.00;0.00;;;12.60;87.90;;;;;;4167840;28;20487;-69
2022/03/31 10:01:19;;;;;;;0.00;0.00;;;12.40;88.60;;;;;;4181992;28;20083;-68
2022/03/31 10:03:42;;;;;;;0.00;0.00;;;12.50;88.50;;;;;;4168194;28;20464;-69
2022/03/31 10:06:10;;;;;;;0.00;0.00;;;12.70;87.70;;;;;;4168062;28;20045;-67
2022/03/31 10:08:44;;;;;;;0.00;0.00;;;12.90;87.30;;;;;;4154298;28;20046;-67
2022/03/31 10:11:11;;;;;;;0.00;0.00;;;12.80;87.10;;;;;;4181495;28;20049;-68
2022/03/31 10:13:58;;;;;;;0.00;0.00;;;12.80;87.30;;;;;;4154172;28;20092;-67
2022/03/31 10:16:31;;;;;;;0.00;0.00;;;12.90;87.40;;;;;;4168232;28;20045;-70
2022/03/31 10:18:58;;;;;;;0.00;0.00;;;13.00;86.50;;;;;;4153066;28;20415;-67
2022/03/31 10:21:31;;;;;;;0.00;0.00;;;13.00;86.40;;;;;;4181531;28;20110;-67
2022/03/31 10:26:37;;;;;;;0.00;0.00;;;13.20;84.80;;;;;;4167980;28;20442;-68
2022/03/31 10:29:01;;;;;;;0.00;0.00;;;13.30;84.10;;;;;;4153698;28;20104;-68
2022/03/31 10:31:35;;;;;;;0.00;0.00;;;13.30;83.40;;;;;;4154286;28;20088;-68
2022/03/31 10:33:58;;;;;;;0.00;0.00;;;13.40;83.60;;;;;;4168298;28;20041;-69
2022/03/31 10:36:24;;;;;;;0.00;0.00;;;13.20;83.90;;;;;;4181518;28;20083;-69
2022/03/31 10:38:55;;;;;;;0.00;0.00;;;13.00;84.50;;;;;;4168368;28;20065;-66
2022/03/31 10:41:17;;;;;;;0.00;0.00;;;13.00;85.00;;;;;;4153884;28;20045;-70
2022/03/31 10:43:47;;;;;;;0.00;0.00;;;13.00;85.10;;;;;;4153838;28;20041;-68
2022/03/31 10:46:18;;;;;;;0.00;0.00;;;13.20;85.00;;;;;;4153722;28;20116;-70
2022/03/31 10:48:49;;;;;;;0.00;0.00;;;13.30;84.50;;;;;;4167031;28;20107;-69
2022/03/31 10:51:14;;;;;;;0.00;0.00;;;13.40;84.40;;;;;;4167177;28;20042;-69
2022/03/31 10:53:41;;;;;;;0.00;0.00;;;13.40;84.40;;;;;;4181155;28;20041;-69
2022/03/31 10:56:19;;;;;;;0.00;0.00;;;13.50;84.40;;;;;;4153551;28;20472;-69
2022/03/31 10:58:46;;;;;;;0.00;0.00;;;13.50;84.10;;;;;;4180936;28;20736;-69
2022/03/31 11:01:10;;;;;;;0.00;0.00;;;13.50;83.50;;;;;;4181363;28;20482;-68
2022/03/31 11:03:34;;;;;;;0.00;0.00;;;13.50;83.60;;;;;;4167149;28;20038;-66
2022/03/31 11:06:05;;;;;;;0.00;0.00;;;13.50;83.50;;;;;;4167695;28;20075;-68
2022/03/31 11:08:27;;;;;;;0.00;0.00;;;13.60;83.10;;;;;;4167218;28;20049;-69
2022/03/31 11:10:54;;;;;;;0.00;0.00;;;13.50;82.80;;;;;;4153312;28;20051;-68
2022/03/31 11:13:29;;;;;;;0.00;0.00;;;13.60;82.60;;;;;;4180954;28;20045;-67
2022/03/31 11:15:58;;;;;;;0.00;0.00;;;13.60;82.70;;;;;;4153270;28;20084;-68
2022/03/31 11:18:26;;;;;;;0.00;0.00;;;13.70;82.80;;;;;;4181018;28;20076;-69
2022/03/31 11:20:57;;;;;;;0.00;0.00;;;13.80;82.60;;;;;;4152735;28;20065;-68
2022/03/31 11:23:21;;;;;;;0.00;0.00;;;14.00;82.10;;;;;;4180702;28;20049;-69
2022/03/31 11:25:43;;;;;;;0.00;0.00;;;14.10;82.40;;;;;;4180857;28;20059;-66
2022/03/31 11:28:12;;;;;;;0.00;0.00;;;14.10;81.50;;;;;;4166885;28;20049;-68
2022/03/31 11:30:43;;;;;;;0.00;0.00;;;14.20;81.40;;;;;;4138985;28;20078;-67
2022/03/31 11:33:10;;;;;;;0.00;0.00;;;14.30;81.20;;;;;;4180246;28;20045;-69
2022/03/31 11:35:33;;;;;;;0.00;0.00;;;14.40;80.90;;;;;;4153125;28;20053;-68
2022/03/31 11:37:57;;;;;;;0.00;0.00;;;14.30;80.80;;;;;;4153372;28;20045;-67
2022/03/31 11:40:26;;;;;;;0.00;0.00;;;14.20;81.10;;;;;;4167043;28;20052;-68
2022/03/31 11:42:49;;;;;;;0.00;0.00;;;14.30;80.80;;;;;;4152350;28;20120;-68
2022/03/31 11:45:24;;;;;;;0.00;0.00;;;14.20;80.40;;;;;;4152957;28;20126;-68
2022/03/31 11:47:55;;;;;;;0.00;0.00;;;14.10;79.10;;;;;;4167140;28;20395;-69
2022/03/31 11:50:20;;;;;;;0.00;0.00;;;13.80;78.20;;;;;;4180732;28;20045;-66
2022/03/31 11:52:41;;;;;;;0.00;0.00;;;13.60;77.70;;;;;;4166498;28;20113;-68
2022/03/31 11:55:15;;;;;;;0.00;0.00;;;13.50;79.00;;;;;;4166751;28;20045;-68
2022/03/31 11:57:37;;;;;;;0.00;0.00;;;13.40;80.30;;;;;;4152845;28;20050;-67
2022/03/31 12:00:10;;;;;;;0.00;0.00;;;13.30;81.50;;;;;;4180524;28;20048;-67
2022/03/31 12:02:32;;;;;;;0.00;0.00;;;13.30;82.60;;;;;;4180536;28;20347;-68
2022/03/31 12:04:54;;;;;;;0.00;0.00;;;13.20;83.50;;;;;;4152297;28;20060;-67
2022/03/31 12:07:22;;;;;;;0.00;0.00;;;13.20;83.80;;;;;;4180145;28;20049;-67
2022/03/31 12:09:48;;;;;;;0.00;0.00;;;13.10;84.50;;;;;;4180210;28;20037;-68
2022/03/31 12:12:19;;;;;;;0.00;0.00;;;13.00;85.40;;;;;;4166741;28;20475;-68
2022/03/31 12:14:56;;;;;;;0.00;0.00;;;12.90;85.90;;;;;;4166124;28;20049;-68
2022/03/31 12:17:19;;;;;;;0.00;0.00;;;12.80;86.30;;;;;;4180451;28;20333;-68
2022/03/31 12:19:44;;;;;;;0.00;0.00;;;12.70;86.80;;;;;;4180482;28;20449;-69
2022/03/31 12:22:11;;;;;;;0.00;0.00;;;12.70;87.40;;;;;;4166417;28;20050;-67
2022/03/31 12:24:44;;;;;;;0.00;0.00;;;12.70;87.80;;;;;;4152487;28;20116;-67
2022/03/31 12:27:06;;;;;;;0.00;0.00;;;12.70;88.20;;;;;;4152672;28;20033;-69
2022/03/31 12:29:32;;;;;;;0.00;0.00;;;12.80;89.10;;;;;;4152690;28;20061;-70
2022/03/31 12:32:09;;;;;;;0.00;0.00;;;12.90;89.40;;;;;;4153018;28;20057;-69
2022/03/31 12:34:36;;;;;;;0.00;0.00;;;13.00;89.10;;;;;;4180395;28;20045;-68
2022/03/31 12:36:58;;;;;;;0.00;0.00;;;12.90;88.90;;;;;;4152676;28;20622;-68
2022/03/31 12:39:20;;;;;;;0.00;0.00;;;12.70;88.50;;;;;;4180185;28;20052;-69
2022/03/31 12:41:53;;;;;;;0.00;0.00;;;12.60;87.90;;;;;;4181941;28;20084;-68